Time;durP1;ratioP1;P1;durP2;ratioP2;P2;SDS_P1;SDS_P2;PMS_P1;PMS_P2;Temp;Humidity;BMP_temperature;BMP_pressure;BME280_temperature;BME280_humidity;BME280_pressure;Samples;Min_cycle;Max_cycle;Signal;HPM_P1;HPM_P2
2022/08/18 00:01:39;;;;;;;;;;;18.40;99.90;;;;;;5176389;27;20366;-72
2022/08/18 00:04:05;;;;;;;;;;;18.40;99.90;;;;;;5176213;27;20018;-70
2022/08/18 00:06:31;;;;;;;;;;;18.40;99.90;;;;;;5176148;27;19981;-72
2022/08/18 00:08:58;;;;;;;;;;;18.40;99.90;;;;;;5176361;27;20370;-71
2022/08/18 00:11:23;;;;;;;;;;;18.40;99.90;;;;;;5157425;27;20428;-70
2022/08/18 00:13:49;;;;;;;;;;;18.40;99.90;;;;;;5176319;27;20012;-70
2022/08/18 00:16:14;;;;;;;;;;;18.40;99.90;;;;;;5176256;27;19922;-72
2022/08/18 00:18:40;;;;;;;;;;;18.40;99.90;;;;;;5176211;27;19980;-70
2022/08/18 00:21:06;;;;;;;;;;;18.40;99.90;;;;;;5157400;27;19922;-71
2022/08/18 00:23:32;;;;;;;;;;;18.30;99.90;;;;;;5175935;27;19929;-70
2022/08/18 00:25:58;;;;;;;;;;;18.30;99.90;;;;;;5175816;27;20333;-70
2022/08/18 00:28:24;;;;;;;;;;;18.30;99.90;;;;;;5157542;27;19922;-71
2022/08/18 00:30:50;;;;;;;;;;;18.30;99.90;;;;;;5175993;27;20556;-70
2022/08/18 00:33:15;;;;;;;;;;;18.30;99.90;;;;;;5157734;27;20021;-71
2022/08/18 00:35:41;;;;;;;;;;;18.30;99.90;;;;;;5175872;27;19922;-70
2022/08/18 00:38:07;;;;;;;;;;;18.30;99.90;;;;;;5175694;27;20377;-69
2022/08/18 00:40:36;;;;;;;;;;;18.30;99.90;;;;;;5176258;27;19930;-70
2022/08/18 00:43:03;;;;;;;;;;;18.30;99.90;;;;;;5175741;27;19923;-70
2022/08/18 00:45:36;;;;;;;;;;;18.10;99.90;;;;;;5175817;27;19966;-71
2022/08/18 00:48:05;;;;;;;;;;;18.30;99.90;;;;;;5175601;27;19962;-70
2022/08/18 00:50:36;;;;;;;;;;;18.30;99.90;;;;;;5175743;27;19927;-70
2022/08/18 00:53:18;;;;;;;;;;;18.20;99.90;;;;;;5175754;27;19945;-71
2022/08/18 00:55:47;;;;;;;;;;;18.10;99.90;;;;;;5175903;27;19934;-71
2022/08/18 00:58:26;;;;;;;;;;;18.10;99.90;;;;;;5175745;27;20015;-71
2022/08/18 01:00:51;;;;;;;;;;;18.10;99.90;;;;;;5175776;27;19949;-70
2022/08/18 01:03:17;;;;;;;;;;;18.10;99.90;;;;;;5175851;27;20444;-70
2022/08/18 01:05:49;;;;;;;;;;;18.00;99.90;;;;;;5175946;27;19926;-72
2022/08/18 01:08:15;;;;;;;;;;;18.00;99.90;;;;;;5175899;27;19948;-71
2022/08/18 01:10:41;;;;;;;;;;;18.00;99.90;;;;;;5157316;27;19991;-70
2022/08/18 01:13:07;;;;;;;;;;;18.00;99.90;;;;;;5175922;27;20365;-70
2022/08/18 01:15:32;;;;;;;;;;;18.00;99.90;;;;;;5175758;27;19967;-71
2022/08/18 01:23:32;;;;;;;;;;;18.00;99.90;;;;;;5177653;27;19930;-70
2022/08/18 01:26:02;;;;;;;;;;;18.10;99.90;;;;;;5160408;27;19923;-70
2022/08/18 01:28:30;;;;;;;;;;;18.00;99.90;;;;;;5179542;27;19978;-70
2022/08/18 01:30:57;;;;;;;;;;;18.00;99.90;;;;;;5179775;27;20297;-70
2022/08/18 01:33:28;;;;;;;;;;;18.00;99.90;;;;;;5179649;27;20009;-70
2022/08/18 01:35:53;;;;;;;;;;;18.00;99.90;;;;;;5179602;27;19992;-71
2022/08/18 01:38:21;;;;;;;;;;;18.00;99.90;;;;;;5160818;27;20362;-70
2022/08/18 01:40:47;;;;;;;;;;;18.00;99.90;;;;;;5161206;27;19922;-71
2022/08/18 01:43:13;;;;;;;;;;;18.00;99.90;;;;;;5179295;27;20301;-70
2022/08/18 01:45:39;;;;;;;;;;;17.80;99.90;;;;;;5160910;27;19929;-71
2022/08/18 01:48:05;;;;;;;;;;;18.00;99.90;;;;;;5179311;27;20063;-70
2022/08/18 01:50:33;;;;;;;;;;;17.90;99.90;;;;;;5160995;27;19926;-71
2022/08/18 01:52:59;;;;;;;;;;;18.00;99.90;;;;;;5160456;27;19923;-71
2022/08/18 01:55:27;;;;;;;;;;;17.90;99.90;;;;;;5179170;27;19930;-70
2022/08/18 01:57:53;;;;;;;;;;;17.90;99.90;;;;;;5179074;27;20021;-70
2022/08/18 02:00:19;;;;;;;;;;;17.90;99.90;;;;;;5159775;27;19922;-71
2022/08/18 02:02:45;;;;;;;;;;;17.90;99.90;;;;;;5179126;27;20450;-71
2022/08/18 02:05:14;;;;;;;;;;;17.90;99.90;;;;;;5179001;27;20385;-70
2022/08/18 02:07:39;;;;;;;;;;;17.90;99.90;;;;;;5160655;27;19945;-72
2022/08/18 02:10:06;;;;;;;;;;;17.90;99.90;;;;;;5178893;27;20373;-70
2022/08/18 02:12:32;;;;;;;;;;;17.90;99.90;;;;;;5178744;27;19923;-70
2022/08/18 02:14:57;;;;;;;;;;;17.90;99.90;;;;;;5178983;27;20434;-71
2022/08/18 02:17:23;;;;;;;;;;;17.90;99.90;;;;;;5178805;27;19922;-70
2022/08/18 02:19:49;;;;;;;;;;;17.90;99.90;;;;;;5160384;27;19923;-70
2022/08/18 02:22:16;;;;;;;;;;;17.90;99.90;;;;;;5160262;27;19922;-72
2022/08/18 02:24:42;;;;;;;;;;;17.90;99.90;;;;;;5178544;27;20021;-70
2022/08/18 02:27:08;;;;;;;;;;;18.00;99.90;;;;;;5178408;27;19959;-70
2022/08/18 02:29:35;;;;;;;;;;;18.00;99.90;;;;;;5160307;27;19930;-71
2022/08/18 02:32:01;;;;;;;;;;;18.00;99.90;;;;;;5178366;27;20369;-70
2022/08/18 02:34:26;;;;;;;;;;;18.10;99.90;;;;;;5177813;27;20407;-71
2022/08/18 02:36:52;;;;;;;;;;;18.10;99.90;;;;;;5159939;27;19923;-70
2022/08/18 02:39:18;;;;;;;;;;;18.10;99.90;;;;;;5178375;27;20385;-70
2022/08/18 02:41:43;;;;;;;;;;;18.10;99.90;;;;;;5159888;27;19966;-70
2022/08/18 02:44:09;;;;;;;;;;;18.10;99.90;;;;;;5178106;27;19929;-70
2022/08/18 02:46:35;;;;;;;;;;;18.10;99.90;;;;;;5178319;27;19923;-70
2022/08/18 02:49:01;;;;;;;;;;;18.10;99.90;;;;;;5178156;27;19987;-70
2022/08/18 02:51:27;;;;;;;;;;;18.10;99.90;;;;;;5159286;27;19923;-71
2022/08/18 02:53:53;;;;;;;;;;;18.10;99.90;;;;;;5159503;27;19930;-70
2022/08/18 02:56:28;;;;;;;;;;;18.10;99.90;;;;;;5178006;27;19922;-70
2022/08/18 02:58:55;;;;;;;;;;;18.10;99.90;;;;;;5178159;27;20370;-71
2022/08/18 03:01:21;;;;;;;;;;;18.10;99.90;;;;;;5178072;27;19940;-70
2022/08/18 03:03:47;;;;;;;;;;;18.10;99.90;;;;;;5177987;27;19923;-70
2022/08/18 03:06:13;;;;;;;;;;;18.10;99.90;;;;;;5177770;27;19985;-70
2022/08/18 03:08:38;;;;;;;;;;;18.10;99.90;;;;;;5177775;27;19923;-71
2022/08/18 03:11:04;;;;;;;;;;;18.10;99.90;;;;;;5177710;27;19930;-70
2022/08/18 03:13:30;;;;;;;;;;;18.10;99.90;;;;;;5177558;27;19929;-71
2022/08/18 03:15:55;;;;;;;;;;;18.10;99.90;;;;;;5177756;27;20441;-72
2022/08/18 03:18:22;;;;;;;;;;;18.10;99.90;;;;;;5177749;27;19933;-70
2022/08/18 03:20:48;;;;;;;;;;;18.10;99.90;;;;;;5177569;27;19952;-70
2022/08/18 03:23:13;;;;;;;;;;;18.10;99.90;;;;;;5177491;27;19923;-70
2022/08/18 03:25:46;;;;;;;;;;;18.10;99.90;;;;;;5158297;27;19923;-71
2022/08/18 03:28:12;;;;;;;;;;;18.10;99.90;;;;;;5177296;27;19929;-70
2022/08/18 03:30:38;;;;;;;;;;;18.10;99.90;;;;;;5177435;27;19929;-70
2022/08/18 03:33:03;;;;;;;;;;;18.10;99.90;;;;;;5158870;27;19922;-70
2022/08/18 03:35:29;;;;;;;;;;;18.10;99.90;;;;;;5177262;27;19923;-70
2022/08/18 03:37:58;;;;;;;;;;;18.10;99.90;;;;;;5177180;27;19923;-71
2022/08/18 03:40:24;;;;;;;;;;;18.10;99.90;;;;;;5158850;27;19923;-71
2022/08/18 03:42:49;;;;;;;;;;;18.10;99.90;;;;;;5158687;27;19930;-71
2022/08/18 03:45:15;;;;;;;;;;;18.10;99.90;;;;;;5158015;27;19922;-70
2022/08/18 03:47:40;;;;;;;;;;;18.20;99.90;;;;;;5158496;27;20035;-70
2022/08/18 03:50:06;;;;;;;;;;;18.10;99.90;;;;;;5158749;27;19923;-72
2022/08/18 03:52:32;;;;;;;;;;;18.10;99.90;;;;;;5176772;27;19922;-71
2022/08/18 03:54:57;;;;;;;;;;;18.20;99.90;;;;;;5176840;27;19936;-71
2022/08/18 03:57:23;;;;;;;;;;;18.10;99.90;;;;;;5176724;27;19923;-70
2022/08/18 03:59:48;;;;;;;;;;;18.20;99.90;;;;;;5176700;27;19929;-70
2022/08/18 04:02:14;;;;;;;;;;;18.20;99.90;;;;;;5176867;27;19927;-70
2022/08/18 04:04:40;;;;;;;;;;;18.10;99.90;;;;;;5176580;27;19945;-70
2022/08/18 04:07:07;;;;;;;;;;;18.10;99.90;;;;;;5176885;27;19922;-70
2022/08/18 04:09:34;;;;;;;;;;;18.20;99.90;;;;;;5176684;27;19923;-70
2022/08/18 04:12:03;;;;;;;;;;;18.20;99.90;;;;;;5176570;27;20331;-71
2022/08/18 04:14:31;;;;;;;;;;;18.10;99.90;;;;;;5176416;27;19922;-70
2022/08/18 04:16:57;;;;;;;;;;;18.20;99.90;;;;;;5176403;27;20400;-70
2022/08/18 04:19:23;;;;;;;;;;;18.20;99.90;;;;;;5176644;27;19923;-70
2022/08/18 04:21:50;;;;;;;;;;;18.20;99.90;;;;;;5176547;27;19945;-70
2022/08/18 04:24:16;;;;;;;;;;;18.20;99.90;;;;;;5176118;27;20429;-70
2022/08/18 04:26:44;;;;;;;;;;;18.20;99.90;;;;;;5176336;27;19923;-69
2022/08/18 04:29:10;;;;;;;;;;;18.20;99.90;;;;;;5176196;27;19934;-70
2022/08/18 04:31:36;;;;;;;;;;;18.20;99.90;;;;;;5176482;27;19923;-71
2022/08/18 04:34:02;;;;;;;;;;;18.20;99.90;;;;;;5176377;27;20017;-70
2022/08/18 04:36:29;;;;;;;;;;;18.20;99.90;;;;;;5176182;27;20401;-70
2022/08/18 04:38:54;;;;;;;;;;;18.30;99.90;;;;;;5176216;27;19937;-69
2022/08/18 04:41:23;;;;;;;;;;;18.30;99.90;;;;;;5176272;27;19922;-70
2022/08/18 04:43:50;;;;;;;;;;;18.30;99.90;;;;;;5157775;27;19934;-70
2022/08/18 04:46:16;;;;;;;;;;;18.30;99.90;;;;;;5176267;27;19952;-71
2022/08/18 04:48:42;;;;;;;;;;;18.30;99.90;;;;;;5175942;27;19927;-71
2022/08/18 04:51:09;;;;;;;;;;;18.30;99.90;;;;;;5157710;27;19923;-70
2022/08/18 04:53:44;;;;;;;;;;;18.30;99.90;;;;;;5157754;27;20360;-72
2022/08/18 04:56:25;;;;;;;;;;;18.30;99.90;;;;;;5176108;27;19923;-70
2022/08/18 04:58:51;;;;;;;;;;;18.30;99.90;;;;;;5162137;27;20357;-70
2022/08/18 05:01:19;;;;;;;;;;;18.30;99.90;;;;;;5180422;27;20296;-70
2022/08/18 05:03:45;;;;;;;;;;;18.30;99.90;;;;;;5161722;27;20017;-70
2022/08/18 05:06:10;;;;;;;;;;;17.90;99.90;;;;;;5180182;27;20022;-69
2022/08/18 05:08:36;;;;;;;;;;;18.40;99.90;;;;;;5161460;27;19923;-70
2022/08/18 05:11:02;;;;;;;;;;;18.30;99.90;;;;;;5161408;27;19960;-71
2022/08/18 05:13:28;;;;;;;;;;;18.30;99.90;;;;;;5161856;27;19923;-70
2022/08/18 05:15:57;;;;;;;;;;;18.30;99.90;;;;;;5180167;27;20391;-70
2022/08/18 05:18:23;;;;;;;;;;;18.30;99.90;;;;;;5180054;27;20333;-70
2022/08/18 05:20:52;;;;;;;;;;;18.30;99.90;;;;;;5179940;27;19929;-71
2022/08/18 05:23:18;;;;;;;;;;;18.30;99.90;;;;;;5161148;27;19929;-70
2022/08/18 05:25:44;;;;;;;;;;;18.30;99.90;;;;;;5179391;27;19970;-71
2022/08/18 05:28:10;;;;;;;;;;;18.30;99.90;;;;;;5179912;27;19962;-70
2022/08/18 05:30:36;;;;;;;;;;;18.30;99.90;;;;;;5179860;27;19975;-70
2022/08/18 05:33:02;;;;;;;;;;;18.40;99.90;;;;;;5161211;27;20380;-70
2022/08/18 05:35:41;;;;;;;;;;;18.40;99.90;;;;;;5179667;27;20030;-70
2022/08/18 05:38:15;;;;;;;;;;;18.30;99.90;;;;;;5179529;27;19926;-71
2022/08/18 05:40:42;;;;;;;;;;;18.30;99.90;;;;;;5179676;27;19923;-70
2022/08/18 05:43:08;;;;;;;;;;;18.30;99.90;;;;;;5179650;27;20437;-69
2022/08/18 05:45:34;;;;;;;;;;;18.30;99.90;;;;;;5160901;27;19967;-71
2022/08/18 05:48:00;;;;;;;;;;;18.30;99.90;;;;;;5179425;27;19923;-71
2022/08/18 05:50:27;;;;;;;;;;;18.30;99.90;;;;;;5179353;27;19945;-70
2022/08/18 05:52:57;;;;;;;;;;;18.30;99.90;;;;;;5179208;27;20303;-71
2022/08/18 05:58:16;;;;;;;;;;;18.30;99.90;;;;;;5179281;27;20016;-70
2022/08/18 06:00:46;;;;;;;;;;;18.30;99.90;;;;;;5179227;27;19989;-70
2022/08/18 06:03:15;;;;;;;;;;;18.30;99.90;;;;;;5179050;27;19923;-70
2022/08/18 06:05:48;;;;;;;;;;;18.20;99.90;;;;;;5178874;27;19923;-71
2022/08/18 06:08:15;;;;;;;;;;;18.20;99.90;;;;;;5177383;27;19923;-70
2022/08/18 06:10:43;;;;;;;;;;;18.30;99.90;;;;;;5178675;27;19926;-70
2022/08/18 06:13:09;;;;;;;;;;;18.30;99.90;;;;;;5160618;27;19926;-71
2022/08/18 06:15:48;;;;;;;;;;;19.00;99.90;;;;;;5178865;27;19923;-69
2022/08/18 06:18:26;;;;;;;;;;;18.40;99.90;;;;;;5142818;27;20044;-70
2022/08/18 06:21:10;;;;;;;;;;;18.40;99.90;;;;;;5178780;27;19981;-70
2022/08/18 06:23:39;;;;;;;;;;;18.40;99.90;;;;;;5178680;27;19993;-70
2022/08/18 06:26:12;;;;;;;;;;;18.50;99.90;;;;;;5178589;27;19923;-69
2022/08/18 06:28:46;;;;;;;;;;;18.50;99.90;;;;;;5160123;27;19971;-70
2022/08/18 06:31:30;;;;;;;;;;;18.50;99.90;;;;;;5178654;27;19931;-70
2022/08/18 06:34:01;;;;;;;;;;;18.60;99.90;;;;;;5159705;27;19948;-71
2022/08/18 06:36:27;;;;;;;;;;;18.60;99.90;;;;;;5178411;27;19991;-71
2022/08/18 06:39:03;;;;;;;;;;;18.70;99.90;;;;;;5178116;27;20389;-71
2022/08/18 06:41:41;;;;;;;;;;;18.70;99.90;;;;;;5178241;27;19976;-70
2022/08/18 06:44:08;;;;;;;;;;;18.70;99.90;;;;;;5178225;27;19923;-70
2022/08/18 06:46:40;;;;;;;;;;;18.70;99.90;;;;;;5159950;27;19944;-70
2022/08/18 06:49:07;;;;;;;;;;;18.80;99.90;;;;;;5178146;27;19923;-70
2022/08/18 06:51:33;;;;;;;;;;;18.80;99.90;;;;;;5178048;27;19923;-70
2022/08/18 06:54:02;;;;;;;;;;;18.50;99.90;;;;;;5178091;27;20010;-70
2022/08/18 06:56:39;;;;;;;;;;;18.80;99.90;;;;;;5178599;27;20285;-71
2022/08/18 06:59:17;;;;;;;;;;;18.90;99.90;;;;;;5178020;27;19930;-70
2022/08/18 07:01:44;;;;;;;;;;;18.90;99.90;;;;;;5178265;27;19923;-70
2022/08/18 07:04:28;;;;;;;;;;;18.90;99.90;;;;;;5177705;27;19922;-71
2022/08/18 07:06:53;;;;;;;;;;;18.90;99.90;;;;;;5177945;27;19922;-71
2022/08/18 07:09:21;;;;;;;;;;;18.90;99.90;;;;;;5177724;27;20305;-71
2022/08/18 07:11:57;;;;;;;;;;;18.90;99.90;;;;;;5177867;27;19926;-70
2022/08/18 07:14:24;;;;;;;;;;;19.00;99.90;;;;;;5141648;27;20307;-70
2022/08/18 07:16:50;;;;;;;;;;;18.90;99.90;;;;;;5177471;27;19922;-70
2022/08/18 07:19:19;;;;;;;;;;;19.00;99.90;;;;;;5177364;27;19934;-70
2022/08/18 07:21:46;;;;;;;;;;;18.90;99.90;;;;;;5177627;27;19922;-70
2022/08/18 07:24:18;;;;;;;;;;;18.90;99.90;;;;;;5177118;27;19931;-70
2022/08/18 07:27:01;;;;;;;;;;;18.90;99.90;;;;;;5158840;27;19922;-70
2022/08/18 07:29:27;;;;;;;;;;;18.90;99.90;;;;;;5158646;27;20338;-70
2022/08/18 07:31:54;;;;;;;;;;;19.00;99.90;;;;;;5177187;27;19930;-70
2022/08/18 07:34:36;;;;;;;;;;;19.00;99.90;;;;;;5177340;27;19929;-71
2022/08/18 07:37:04;;;;;;;;;;;19.00;99.90;;;;;;5158605;27;19931;-70
2022/08/18 07:39:49;;;;;;;;;;;19.00;99.90;;;;;;5176983;27;19922;-69
2022/08/18 07:42:17;;;;;;;;;;;19.00;99.90;;;;;;5176983;27;19970;-70
2022/08/18 07:45:05;;;;;;;;;;;19.00;99.90;;;;;;5177077;27;20021;-70
2022/08/18 07:47:48;;;;;;;;;;;19.00;99.90;;;;;;5071870;28;19928;-70
2022/08/18 07:50:14;;;;;;;;;;;19.00;99.90;;;;;;5055548;28;20402;-70
2022/08/18 07:52:43;;;;;;;;;;;19.00;99.90;;;;;;5069837;28;19932;-70
2022/08/18 07:55:14;;;;;;;;;;;19.00;99.90;;;;;;5035724;28;19925;-70
2022/08/18 07:57:54;;;;;;;;;;;19.10;99.90;;;;;;5051734;28;20366;-73
2022/08/18 08:00:25;;;;;;;;;;;19.00;99.90;;;;;;5051842;28;19971;-69
2022/08/18 08:02:55;;;;;;;;;;;19.10;99.90;;;;;;5051768;28;19925;-70
2022/08/18 08:05:33;;;;;;;;;;;19.10;99.90;;;;;;5051629;28;19931;-69
2022/08/18 08:08:05;;;;;;;;;;;19.10;99.90;;;;;;5051571;28;19932;-72
2022/08/18 08:10:56;;;;;;;;;;;19.10;99.90;;;;;;5034880;28;20067;-71
2022/08/18 08:13:27;;;;;;;;;;;19.10;99.90;;;;;;5051698;28;20345;-71
2022/08/18 08:16:01;;;;;;;;;;;19.00;99.90;;;;;;5051522;28;19925;-70
2022/08/18 08:18:40;;;;;;;;;;;19.10;99.90;;;;;;5051402;28;19924;-70
2022/08/18 08:21:09;;;;;;;;;;;19.00;99.90;;;;;;5035268;28;19925;-72
2022/08/18 08:23:36;;;;;;;;;;;19.10;99.90;;;;;;5062154;27;19932;-74
2022/08/18 08:26:21;;;;;;;;;;;19.10;99.90;;;;;;5136948;27;19931;-70
2022/08/18 08:29:00;;;;;;;;;;;19.10;99.90;;;;;;5154889;27;19931;-71
2022/08/18 08:31:44;;;;;;;;;;;19.30;99.90;;;;;;5155072;27;19923;-71
2022/08/18 08:34:15;;;;;;;;;;;19.10;99.90;;;;;;5155348;27;19974;-73
2022/08/18 08:36:43;;;;;;;;;;;19.00;99.90;;;;;;5155269;27;19986;-71
2022/08/18 08:39:11;;;;;;;;;;;19.00;99.90;;;;;;5155122;27;19923;-71
2022/08/18 08:41:43;;;;;;;;;;;18.90;99.90;;;;;;5155404;27;19923;-71
2022/08/18 08:44:08;;;;;;;;;;;19.00;99.90;;;;;;5155416;27;20292;-72
2022/08/18 08:46:45;;;;;;;;;;;18.90;99.90;;;;;;5154427;27;20018;-71
2022/08/18 08:49:30;;;;;;;;;;;18.90;99.90;;;;;;5155033;27;19934;-71
2022/08/18 08:52:00;;;;;;;;;;;18.90;99.90;;;;;;5155329;27;19923;-71
2022/08/18 08:54:50;;;;;;;;;;;18.90;99.90;;;;;;5154762;27;20374;-73
2022/08/18 08:57:17;;;;;;;;;;;18.90;99.90;;;;;;5051173;28;20019;-70
2022/08/18 08:59:46;;;;;;;;;;;18.90;99.90;;;;;;5071280;28;19928;-72
2022/08/18 09:02:48;;;;;;;;;;;18.90;99.90;;;;;;5054317;28;19947;-73
2022/08/18 09:05:15;;;;;;;;;;;19.00;99.90;;;;;;4991751;28;19949;-73
2022/08/18 09:08:01;;;;;;;;;;;19.00;99.90;;;;;;4991557;28;20365;-71
2022/08/18 09:10:38;;;;;;;;;;;19.00;99.90;;;;;;4975730;28;19965;-74
2022/08/18 09:13:15;;;;;;;;;;;19.10;99.90;;;;;;4991588;28;19980;-71
2022/08/18 09:15:59;;;;;;;;;;;19.10;99.90;;;;;;4991627;28;19930;-71
2022/08/18 09:18:47;;;;;;;;;;;19.10;99.90;;;;;;4991541;28;19953;-71
2022/08/18 09:21:30;;;;;;;;;;;19.20;99.90;;;;;;4975341;28;20013;-71
2022/08/18 09:24:09;;;;;;;;;;;19.20;99.90;;;;;;4991255;28;19926;-71
2022/08/18 09:26:42;;;;;;;;;;;19.20;99.90;;;;;;4975300;28;19925;-71
2022/08/18 09:29:23;;;;;;;;;;;19.30;99.90;;;;;;4991304;28;19953;-71
2022/08/18 09:32:13;;;;;;;;;;;19.30;99.90;;;;;;4991193;28;19926;-70
2022/08/18 09:34:50;;;;;;;;;;;19.30;99.90;;;;;;4952471;28;19926;-73
2022/08/18 09:37:19;;;;;;;;;;;19.40;99.90;;;;;;4972044;28;20439;-71
2022/08/18 09:42:38;;;;;;;;;;;19.50;99.90;;;;;;5050761;28;20018;-71
2022/08/18 09:45:07;;;;;;;;;;;19.50;99.90;;;;;;5052763;28;19924;-71
2022/08/18 09:47:33;;;;;;;;;;;19.50;99.90;;;;;;5054300;28;19925;-71
2022/08/18 09:50:00;;;;;;;;;;;19.50;99.90;;;;;;5054258;28;19924;-70
2022/08/18 09:52:27;;;;;;;;;;;19.60;99.90;;;;;;5054041;28;19924;-71
2022/08/18 09:55:01;;;;;;;;;;;19.60;99.90;;;;;;5054057;28;19932;-71
2022/08/18 09:57:29;;;;;;;;;;;19.60;99.90;;;;;;5054255;28;19925;-72
2022/08/18 09:59:58;;;;;;;;;;;19.60;99.90;;;;;;5053844;28;20283;-71
2022/08/18 10:02:35;;;;;;;;;;;19.60;99.90;;;;;;5054026;28;19987;-72
2022/08/18 10:05:08;;;;;;;;;;;19.60;99.90;;;;;;5053808;28;19932;-73
2022/08/18 10:07:36;;;;;;;;;;;19.60;99.90;;;;;;5053954;28;20014;-74
2022/08/18 10:10:09;;;;;;;;;;;19.60;99.90;;;;;;5053863;28;19935;-71
2022/08/18 10:12:56;;;;;;;;;;;19.60;99.90;;;;;;5128620;27;20377;-71
2022/08/18 10:15:25;;;;;;;;;;;19.50;99.90;;;;;;5136998;27;20397;-71
2022/08/18 10:18:08;;;;;;;;;;;19.60;99.90;;;;;;5136960;27;20336;-71
2022/08/18 10:20:37;;;;;;;;;;;19.70;99.90;;;;;;5137175;27;19938;-71
2022/08/18 10:23:06;;;;;;;;;;;19.70;99.90;;;;;;5136834;27;19923;-72
2022/08/18 10:25:45;;;;;;;;;;;19.70;99.90;;;;;;5170202;27;19926;-70
2022/08/18 10:28:33;;;;;;;;;;;19.70;99.90;;;;;;5178510;27;19922;-71
2022/08/18 10:31:00;;;;;;;;;;;19.70;99.90;;;;;;5178539;27;20456;-72
2022/08/18 10:33:45;;;;;;;;;;;19.70;99.90;;;;;;5178478;27;20010;-71
2022/08/18 10:36:31;;;;;;;;;;;19.80;99.90;;;;;;5178373;27;20205;-72
2022/08/18 10:38:56;;;;;;;;;;;19.80;99.90;;;;;;5159973;27;19922;-73
2022/08/18 10:41:25;;;;;;;;;;;19.80;99.90;;;;;;5178707;27;20293;-73
2022/08/18 10:43:51;;;;;;;;;;;19.80;99.90;;;;;;5178447;27;19923;-71
2022/08/18 10:46:19;;;;;;;;;;;19.90;99.90;;;;;;5178205;27;19922;-71
2022/08/18 10:48:56;;;;;;;;;;;19.90;99.90;;;;;;5178074;27;19927;-70
2022/08/18 10:51:45;;;;;;;;;;;20.00;99.90;;;;;;5178027;27;19974;-71
2022/08/18 10:54:16;;;;;;;;;;;20.00;99.90;;;;;;5072966;28;19924;-71
2022/08/18 10:56:48;;;;;;;;;;;20.10;99.90;;;;;;5056450;28;20458;-71
2022/08/18 10:59:19;;;;;;;;;;;20.10;99.90;;;;;;5056483;28;19983;-71
2022/08/18 11:01:45;;;;;;;;;;;20.10;99.90;;;;;;5056119;28;19924;-72
2022/08/18 11:04:31;;;;;;;;;;;20.10;99.90;;;;;;5072921;28;19931;-72
2022/08/18 11:07:02;;;;;;;;;;;20.10;99.90;;;;;;5065654;28;19928;-70
2022/08/18 11:09:28;;;;;;;;;;;20.10;99.90;;;;;;5072685;28;19932;-70
2022/08/18 11:11:56;;;;;;;;;;;20.20;99.90;;;;;;5072728;28;20023;-70
2022/08/18 11:14:22;;;;;;;;;;;20.20;99.90;;;;;;5057629;28;19928;-70
2022/08/18 11:16:57;;;;;;;;;;;20.20;99.90;;;;;;5072741;28;19930;-71
2022/08/18 11:19:23;;;;;;;;;;;20.20;99.90;;;;;;5072500;28;19924;-71
2022/08/18 11:21:51;;;;;;;;;;;20.20;99.90;;;;;;5056200;28;19931;-71
2022/08/18 11:24:23;;;;;;;;;;;20.20;99.90;;;;;;5072124;28;19924;-71
2022/08/18 11:26:53;;;;;;;;;;;20.20;99.90;;;;;;5072456;28;19947;-71
2022/08/18 11:29:23;;;;;;;;;;;20.30;99.90;;;;;;5089265;28;20380;-72
2022/08/18 11:31:55;;;;;;;;;;;20.30;99.90;;;;;;5137202;27;19931;-71
2022/08/18 11:34:25;;;;;;;;;;;20.30;99.90;;;;;;5156540;27;19923;-71
2022/08/18 11:36:56;;;;;;;;;;;20.10;99.90;;;;;;5154637;27;20319;-72
2022/08/18 11:39:22;;;;;;;;;;;20.20;99.90;;;;;;5156258;27;20456;-71
2022/08/18 11:41:48;;;;;;;;;;;20.30;99.90;;;;;;5156173;27;19966;-73
2022/08/18 11:44:18;;;;;;;;;;;20.30;99.90;;;;;;5156498;27;19945;-71
2022/08/18 11:46:43;;;;;;;;;;;20.30;99.90;;;;;;5156267;27;20304;-71
2022/08/18 11:49:24;;;;;;;;;;;20.30;99.90;;;;;;5120605;27;19923;-73
2022/08/18 11:51:55;;;;;;;;;;;20.30;99.90;;;;;;5156123;27;20373;-71
2022/08/18 11:54:22;;;;;;;;;;;20.30;99.90;;;;;;5156258;27;19927;-71
2022/08/18 11:56:47;;;;;;;;;;;20.30;99.90;;;;;;5137751;27;19923;-74
2022/08/18 11:59:25;;;;;;;;;;;20.30;99.90;;;;;;5137875;27;20326;-70
2022/08/18 12:01:53;;;;;;;;;;;20.40;99.90;;;;;;5155959;27;20270;-71
2022/08/18 12:04:19;;;;;;;;;;;20.40;99.90;;;;;;5155918;27;19975;-73
2022/08/18 12:06:45;;;;;;;;;;;20.40;99.90;;;;;;5155042;27;19930;-73
2022/08/18 12:09:28;;;;;;;;;;;20.40;99.90;;;;;;5155916;27;19934;-71
2022/08/18 12:11:54;;;;;;;;;;;20.40;99.90;;;;;;5155803;27;19923;-71
2022/08/18 12:14:21;;;;;;;;;;;20.30;99.90;;;;;;5155860;27;19923;-73
2022/08/18 12:16:46;;;;;;;;;;;20.30;99.90;;;;;;5155701;27;20308;-74
2022/08/18 12:19:13;;;;;;;;;;;20.40;99.90;;;;;;5155556;27;19924;-71
2022/08/18 12:21:43;;;;;;;;;;;20.30;99.90;;;;;;5155506;27;19930;-73
2022/08/18 12:24:12;;;;;;;;;;;20.40;99.90;;;;;;5136946;27;19923;-71
2022/08/18 12:26:39;;;;;;;;;;;20.30;99.90;;;;;;5154828;27;20401;-71
2022/08/18 12:29:05;;;;;;;;;;;20.40;99.90;;;;;;5155581;27;20331;-71
2022/08/18 12:31:31;;;;;;;;;;;19.90;99.90;;;;;;5136873;27;19923;-70
2022/08/18 12:33:56;;;;;;;;;;;20.40;99.90;;;;;;5155379;27;20006;-74
2022/08/18 12:36:28;;;;;;;;;;;20.30;99.90;;;;;;5155283;27;20013;-71
2022/08/18 12:38:54;;;;;;;;;;;20.40;99.90;;;;;;5155105;27;20377;-71
2022/08/18 12:41:20;;;;;;;;;;;20.40;99.90;;;;;;5155470;27;19948;-73
2022/08/18 12:43:46;;;;;;;;;;;20.40;99.90;;;;;;5155435;27;19923;-74
2022/08/18 12:46:12;;;;;;;;;;;20.40;99.90;;;;;;5155225;27;20018;-71
2022/08/18 12:48:38;;;;;;;;;;;20.40;99.90;;;;;;5155269;27;20009;-70
2022/08/18 12:51:04;;;;;;;;;;;20.40;99.90;;;;;;5155211;27;20017;-73
2022/08/18 12:53:30;;;;;;;;;;;20.50;99.90;;;;;;5155155;27;19930;-73
2022/08/18 12:55:55;;;;;;;;;;;20.50;99.90;;;;;;5155404;27;20305;-71
2022/08/18 12:58:21;;;;;;;;;;;20.60;99.90;;;;;;5154165;27;19984;-71
2022/08/18 13:00:46;;;;;;;;;;;20.60;99.90;;;;;;5136923;27;19923;-72
2022/08/18 13:03:13;;;;;;;;;;;20.60;99.90;;;;;;5155131;27;20349;-71
2022/08/18 13:05:39;;;;;;;;;;;20.50;99.90;;;;;;5155010;27;19923;-71
2022/08/18 13:08:08;;;;;;;;;;;20.70;99.90;;;;;;5155025;27;19923;-73
2022/08/18 13:10:34;;;;;;;;;;;20.70;99.90;;;;;;5155197;27;19929;-71
2022/08/18 13:13:00;;;;;;;;;;;20.70;99.90;;;;;;5154462;27;20014;-74
2022/08/18 13:15:26;;;;;;;;;;;20.80;99.90;;;;;;5154315;27;19930;-70
2022/08/18 13:17:51;;;;;;;;;;;20.80;99.90;;;;;;5155778;27;19927;-72
2022/08/18 13:20:17;;;;;;;;;;;20.80;99.90;;;;;;5159010;27;20370;-71
2022/08/18 13:22:42;;;;;;;;;;;20.80;99.90;;;;;;5159094;27;19988;-70
2022/08/18 13:25:10;;;;;;;;;;;20.80;99.90;;;;;;5158895;27;19923;-71
2022/08/18 13:27:37;;;;;;;;;;;20.80;99.90;;;;;;5159008;27;20022;-71
2022/08/18 13:30:08;;;;;;;;;;;20.80;99.90;;;;;;5158956;27;19930;-72
2022/08/18 13:32:33;;;;;;;;;;;20.80;99.90;;;;;;5158785;27;19923;-72
2022/08/18 13:35:00;;;;;;;;;;;20.80;99.90;;;;;;5140231;27;19923;-73
2022/08/18 13:37:27;;;;;;;;;;;20.80;99.90;;;;;;5158579;27;20349;-74
2022/08/18 13:39:53;;;;;;;;;;;20.80;99.90;;;;;;5158744;27;19929;-71
2022/08/18 13:42:19;;;;;;;;;;;20.90;99.90;;;;;;5158745;27;19968;-72
2022/08/18 13:44:45;;;;;;;;;;;21.00;99.90;;;;;;5158669;27;19927;-72
2022/08/18 13:47:11;;;;;;;;;;;21.10;99.90;;;;;;5158459;27;19967;-71
2022/08/18 13:49:36;;;;;;;;;;;21.10;99.90;;;;;;5174859;27;19969;-72
2022/08/18 13:52:02;;;;;;;;;;;21.10;99.90;;;;;;5158735;27;19930;-71
2022/08/18 13:54:31;;;;;;;;;;;21.10;99.90;;;;;;5158595;27;19923;-71
2022/08/18 13:56:56;;;;;;;;;;;21.10;99.90;;;;;;5140107;27;19922;-71
2022/08/18 13:59:22;;;;;;;;;;;21.10;99.90;;;;;;5158377;27;19923;-71
2022/08/18 14:01:51;;;;;;;;;;;21.10;99.90;;;;;;5158248;27;20328;-71
2022/08/18 14:04:17;;;;;;;;;;;21.10;99.90;;;;;;5158125;27;19923;-71
2022/08/18 14:06:43;;;;;;;;;;;21.20;99.90;;;;;;5139837;27;19938;-71
2022/08/18 14:09:09;;;;;;;;;;;21.20;99.90;;;;;;5158127;27;19923;-73
2022/08/18 14:11:36;;;;;;;;;;;21.20;99.90;;;;;;5139923;27;19968;-71
2022/08/18 14:14:03;;;;;;;;;;;21.20;99.90;;;;;;5158102;27;19930;-71
2022/08/18 14:16:29;;;;;;;;;;;21.20;99.90;;;;;;5157959;27;19923;-71
2022/08/18 14:27:23;;;;;;;;;;;21.20;99.90;;;;;;5157763;27;19970;-72
2022/08/18 14:29:48;;;;;;;;;;;21.20;99.90;;;;;;5156802;27;19929;-72
2022/08/18 14:32:17;;;;;;;;;;;21.20;99.90;;;;;;5157933;27;20013;-72
2022/08/18 14:34:44;;;;;;;;;;;21.30;99.90;;;;;;5157756;27;19923;-72
2022/08/18 14:37:09;;;;;;;;;;;21.30;99.90;;;;;;5139039;27;19923;-72
2022/08/18 14:39:36;;;;;;;;;;;21.30;99.90;;;;;;5157498;27;19930;-71
2022/08/18 14:42:03;;;;;;;;;;;21.30;99.90;;;;;;5157502;27;20415;-71
2022/08/18 14:44:28;;;;;;;;;;;21.30;99.90;;;;;;5157538;27;19927;-70
2022/08/18 14:46:56;;;;;;;;;;;21.40;99.90;;;;;;5157584;27;19963;-71
2022/08/18 14:49:25;;;;;;;;;;;21.40;99.90;;;;;;5138882;27;20393;-71